sensor_id;sensor_type;location;lat;lon;timestamp;P1;durP1;ratioP1;P2;durP2;ratioP2
38611;SDS011;24368;52.156;20.788;2023-04-01T00:04:53;10.20;;;9.20;;
38611;SDS011;24368;52.156;20.788;2023-04-01T00:09:55;11.50;;;9.80;;
38611;SDS011;24368;52.156;20.788;2023-04-01T00:14:57;10.90;;;9.90;;
38611;SDS011;24368;52.156;20.788;2023-04-01T00:19:59;10.70;;;9.60;;
38611;SDS011;24368;52.156;20.788;2023-04-01T00:25:02;11.40;;;10.30;;
38611;SDS011;24368;52.156;20.788;2023-04-01T00:30:05;10.00;;;9.00;;
38611;SDS011;24368;52.156;20.788;2023-04-01T00:35:08;10.30;;;9.20;;
38611;SDS011;24368;52.156;20.788;2023-04-01T00:40:22;10.40;;;9.20;;
38611;SDS011;24368;52.156;20.788;2023-04-01T00:45:36;11.30;;;9.70;;
38611;SDS011;24368;52.156;20.788;2023-04-01T00:50:42;11.10;;;10.00;;
38611;SDS011;24368;52.156;20.788;2023-04-01T00:55:51;10.50;;;9.40;;
38611;SDS011;24368;52.156;20.788;2023-04-01T01:01:07;10.80;;;9.70;;
38611;SDS011;24368;52.156;20.788;2023-04-01T01:06:24;10.60;;;9.60;;
38611;SDS011;24368;52.156;20.788;2023-04-01T01:11:36;11.80;;;10.60;;
38611;SDS011;24368;52.156;20.788;2023-04-01T01:16:44;14.90;;;12.00;;
38611;SDS011;24368;52.156;20.788;2023-04-01T01:27:10;14.20;;;12.70;;
38611;SDS011;24368;52.156;20.788;2023-04-01T01:37:54;12.70;;;11.50;;
38611;SDS011;24368;52.156;20.788;2023-04-01T01:43:01;14.40;;;12.20;;
38611;SDS011;24368;52.156;20.788;2023-04-01T01:48:07;12.70;;;11.10;;
38611;SDS011;24368;52.156;20.788;2023-04-01T01:53:12;13.70;;;12.20;;
38611;SDS011;24368;52.156;20.788;2023-04-01T01:58:25;12.80;;;11.30;;
38611;SDS011;24368;52.156;20.788;2023-04-01T02:03:33;16.30;;;14.70;;
38611;SDS011;24368;52.156;20.788;2023-04-01T02:13:57;14.60;;;13.20;;
38611;SDS011;24368;52.156;20.788;2023-04-01T02:19:04;13.10;;;11.80;;
38611;SDS011;24368;52.156;20.788;2023-04-01T02:24:10;15.40;;;12.90;;
38611;SDS011;24368;52.156;20.788;2023-04-01T02:29:16;13.00;;;11.60;;
38611;SDS011;24368;52.156;20.788;2023-04-01T02:34:22;11.70;;;10.70;;
38611;SDS011;24368;52.156;20.788;2023-04-01T02:39:25;13.90;;;11.70;;
38611;SDS011;24368;52.156;20.788;2023-04-01T02:44:27;13.20;;;11.90;;
38611;SDS011;24368;52.156;20.788;2023-04-01T02:49:29;14.80;;;13.20;;
38611;SDS011;24368;52.156;20.788;2023-04-01T02:54:31;14.50;;;13.00;;
38611;SDS011;24368;52.156;20.788;2023-04-01T02:59:33;14.60;;;12.70;;
38611;SDS011;24368;52.156;20.788;2023-04-01T03:04:34;12.60;;;11.30;;
38611;SDS011;24368;52.156;20.788;2023-04-01T03:09:37;13.80;;;12.30;;
38611;SDS011;24368;52.156;20.788;2023-04-01T03:14:39;13.10;;;11.90;;
38611;SDS011;24368;52.156;20.788;2023-04-01T03:19:40;13.30;;;12.00;;
38611;SDS011;24368;52.156;20.788;2023-04-01T03:24:42;12.50;;;11.20;;
38611;SDS011;24368;52.156;20.788;2023-04-01T03:29:44;12.70;;;11.50;;
38611;SDS011;24368;52.156;20.788;2023-04-01T03:34:46;13.50;;;12.20;;
38611;SDS011;24368;52.156;20.788;2023-04-01T03:39:48;13.00;;;11.60;;
38611;SDS011;24368;52.156;20.788;2023-04-01T03:44:50;13.50;;;11.30;;
38611;SDS011;24368;52.156;20.788;2023-04-01T03:49:51;14.80;;;11.50;;
38611;SDS011;24368;52.156;20.788;2023-04-01T03:54:53;12.20;;;11.00;;
38611;SDS011;24368;52.156;20.788;2023-04-01T03:59:55;13.30;;;12.10;;
38611;SDS011;24368;52.156;20.788;2023-04-01T04:04:57;13.70;;;11.10;;
38611;SDS011;24368;52.156;20.788;2023-04-01T04:09:59;11.30;;;10.10;;
38611;SDS011;24368;52.156;20.788;2023-04-01T04:15:01;10.70;;;9.60;;
38611;SDS011;24368;52.156;20.788;2023-04-01T04:20:03;11.10;;;9.90;;
38611;SDS011;24368;52.156;20.788;2023-04-01T04:25:05;9.00;;;8.10;;
38611;SDS011;24368;52.156;20.788;2023-04-01T04:30:08;10.30;;;9.20;;
38611;SDS011;24368;52.156;20.788;2023-04-01T04:35:10;9.00;;;7.00;;
38611;SDS011;24368;52.156;20.788;2023-04-01T04:40:12;10.30;;;8.30;;
38611;SDS011;24368;52.156;20.788;2023-04-01T04:45:14;8.60;;;7.70;;
38611;SDS011;24368;52.156;20.788;2023-04-01T04:50:16;10.60;;;9.40;;
38611;SDS011;24368;52.156;20.788;2023-04-01T04:55:18;8.00;;;7.30;;
38611;SDS011;24368;52.156;20.788;2023-04-01T05:00:20;7.00;;;6.40;;
38611;SDS011;24368;52.156;20.788;2023-04-01T05:05:22;7.70;;;7.10;;
38611;SDS011;24368;52.156;20.788;2023-04-01T05:10:24;7.50;;;6.90;;
38611;SDS011;24368;52.156;20.788;2023-04-01T05:15:26;7.70;;;7.00;;
38611;SDS011;24368;52.156;20.788;2023-04-01T05:20:28;9.30;;;8.40;;
38611;SDS011;24368;52.156;20.788;2023-04-01T05:25:30;7.70;;;7.00;;
38611;SDS011;24368;52.156;20.788;2023-04-01T05:30:32;8.70;;;7.80;;
38611;SDS011;24368;52.156;20.788;2023-04-01T05:35:34;9.40;;;8.50;;
38611;SDS011;24368;52.156;20.788;2023-04-01T05:40:36;10.00;;;9.10;;
38611;SDS011;24368;52.156;20.788;2023-04-01T05:45:38;9.90;;;8.90;;
38611;SDS011;24368;52.156;20.788;2023-04-01T05:50:40;14.50;;;13.00;;
38611;SDS011;24368;52.156;20.788;2023-04-01T05:55:43;13.40;;;12.00;;
38611;SDS011;24368;52.156;20.788;2023-04-01T06:00:45;14.10;;;12.80;;
38611;SDS011;24368;52.156;20.788;2023-04-01T06:05:47;13.20;;;11.80;;
38611;SDS011;24368;52.156;20.788;2023-04-01T06:37:18;14.80;;;13.20;;
38611;SDS011;24368;52.156;20.788;2023-04-01T06:53:29;20.80;;;18.80;;
38611;SDS011;24368;52.156;20.788;2023-04-01T07:03:55;16.80;;;15.20;;
38611;SDS011;24368;52.156;20.788;2023-04-01T07:09:04;17.10;;;15.40;;
38611;SDS011;24368;52.156;20.788;2023-04-01T07:24:41;17.60;;;15.80;;
38611;SDS011;24368;52.156;20.788;2023-04-01T07:29:46;17.10;;;15.40;;
38611;SDS011;24368;52.156;20.788;2023-04-01T07:34:55;19.10;;;17.30;;
38611;SDS011;24368;52.156;20.788;2023-04-01T07:45:34;19.10;;;17.40;;
38611;SDS011;24368;52.156;20.788;2023-04-01T07:51:02;18.10;;;16.40;;
38611;SDS011;24368;52.156;20.788;2023-04-01T07:56:10;20.20;;;18.30;;
38611;SDS011;24368;52.156;20.788;2023-04-01T08:06:30;18.00;;;16.30;;
38611;SDS011;24368;52.156;20.788;2023-04-01T08:11:48;18.60;;;16.80;;
38611;SDS011;24368;52.156;20.788;2023-04-01T08:17:05;18.60;;;16.70;;
38611;SDS011;24368;52.156;20.788;2023-04-01T08:22:25;17.50;;;15.90;;
38611;SDS011;24368;52.156;20.788;2023-04-01T08:27:41;14.10;;;12.60;;
38611;SDS011;24368;52.156;20.788;2023-04-01T08:33:03;13.70;;;12.40;;
38611;SDS011;24368;52.156;20.788;2023-04-01T08:38:11;16.70;;;15.00;;
38611;SDS011;24368;52.156;20.788;2023-04-01T08:43:42;16.70;;;15.20;;
38611;SDS011;24368;52.156;20.788;2023-04-01T08:48:55;16.00;;;14.40;;
38611;SDS011;24368;52.156;20.788;2023-04-01T08:54:35;14.40;;;13.00;;
38611;SDS011;24368;52.156;20.788;2023-04-01T08:59:57;16.10;;;12.40;;
38611;SDS011;24368;52.156;20.788;2023-04-01T09:21:16;1.50;;;1.40;;
38611;SDS011;24368;52.156;20.788;2023-04-01T09:53:36;1.40;;;1.30;;
38611;SDS011;24368;52.156;20.788;2023-04-01T10:14:37;9.80;;;8.20;;
38611;SDS011;24368;52.156;20.788;2023-04-01T10:30:39;5.10;;;4.60;;
38611;SDS011;24368;52.156;20.788;2023-04-01T10:35:58;5.10;;;4.70;;
38611;SDS011;24368;52.156;20.788;2023-04-01T10:41:21;7.00;;;6.40;;
38611;SDS011;24368;52.156;20.788;2023-04-01T10:51:59;11.10;;;10.10;;
38611;SDS011;24368;52.156;20.788;2023-04-01T11:08:28;6.90;;;6.30;;
38611;SDS011;24368;52.156;20.788;2023-04-01T11:30:19;4.50;;;4.10;;
38611;SDS011;24368;52.156;20.788;2023-04-01T11:52:14;5.10;;;4.70;;
38611;SDS011;24368;52.156;20.788;2023-04-01T12:40:18;6.20;;;5.70;;
38611;SDS011;24368;52.156;20.788;2023-04-01T12:45:38;7.20;;;6.60;;
38611;SDS011;24368;52.156;20.788;2023-04-01T13:01:34;6.40;;;5.90;;
38611;SDS011;24368;52.156;20.788;2023-04-01T13:28:52;6.50;;;5.90;;
38611;SDS011;24368;52.156;20.788;2023-04-01T13:34:14;6.60;;;6.10;;
38611;SDS011;24368;52.156;20.788;2023-04-01T14:29:18;2.90;;;2.20;;
38611;SDS011;24368;52.156;20.788;2023-04-01T14:50:42;2.00;;;1.80;;
38611;SDS011;24368;52.156;20.788;2023-04-01T15:01:13;2.40;;;2.20;;
38611;SDS011;24368;52.156;20.788;2023-04-01T15:22:31;1.90;;;1.80;;
38611;SDS011;24368;52.156;20.788;2023-04-01T15:27:44;3.40;;;3.10;;
38611;SDS011;24368;52.156;20.788;2023-04-01T15:43:38;4.40;;;3.20;;
38611;SDS011;24368;52.156;20.788;2023-04-01T15:48:50;2.20;;;2.00;;
38611;SDS011;24368;52.156;20.788;2023-04-01T15:59:47;4.00;;;3.10;;
38611;SDS011;24368;52.156;20.788;2023-04-01T16:27:12;4.70;;;3.80;;
38611;SDS011;24368;52.156;20.788;2023-04-01T16:42:53;8.40;;;7.60;;
38611;SDS011;24368;52.156;20.788;2023-04-01T16:48:27;4.80;;;4.40;;
38611;SDS011;24368;52.156;20.788;2023-04-01T17:14:55;6.00;;;4.90;;
38611;SDS011;24368;52.156;20.788;2023-04-01T17:41:09;5.10;;;4.70;;
38611;SDS011;24368;52.156;20.788;2023-04-01T17:51:48;4.10;;;3.70;;
38611;SDS011;24368;52.156;20.788;2023-04-01T18:07:45;4.50;;;4.10;;
38611;SDS011;24368;52.156;20.788;2023-04-01T18:13:19;4.30;;;3.90;;
38611;SDS011;24368;52.156;20.788;2023-04-01T18:23:46;5.50;;;4.50;;
38611;SDS011;24368;52.156;20.788;2023-04-01T18:28:58;5.80;;;5.10;;
38611;SDS011;24368;52.156;20.788;2023-04-01T18:34:12;5.50;;;5.00;;
38611;SDS011;24368;52.156;20.788;2023-04-01T18:39:35;5.70;;;4.80;;
38611;SDS011;24368;52.156;20.788;2023-04-01T18:44:49;4.70;;;4.30;;
38611;SDS011;24368;52.156;20.788;2023-04-01T18:50:00;5.70;;;5.10;;
38611;SDS011;24368;52.156;20.788;2023-04-01T19:00:08;6.30;;;5.80;;
38611;SDS011;24368;52.156;20.788;2023-04-01T19:05:29;6.30;;;5.80;;
38611;SDS011;24368;52.156;20.788;2023-04-01T19:10:43;6.20;;;5.60;;
38611;SDS011;24368;52.156;20.788;2023-04-01T19:16:10;7.10;;;6.40;;
38611;SDS011;24368;52.156;20.788;2023-04-01T19:32:10;6.20;;;5.70;;
38611;SDS011;24368;52.156;20.788;2023-04-01T19:37:41;6.80;;;6.20;;
38611;SDS011;24368;52.156;20.788;2023-04-01T19:42:54;6.60;;;6.00;;
38611;SDS011;24368;52.156;20.788;2023-04-01T19:48:05;8.40;;;7.70;;
38611;SDS011;24368;52.156;20.788;2023-04-01T19:58:43;6.00;;;5.30;;
38611;SDS011;24368;52.156;20.788;2023-04-01T20:03:54;6.30;;;5.70;;
38611;SDS011;24368;52.156;20.788;2023-04-01T20:19:40;5.60;;;5.10;;
38611;SDS011;24368;52.156;20.788;2023-04-01T20:24:45;5.30;;;4.80;;
38611;SDS011;24368;52.156;20.788;2023-04-01T20:40:45;5.30;;;4.80;;
38611;SDS011;24368;52.156;20.788;2023-04-01T20:51:08;6.30;;;5.80;;
38611;SDS011;24368;52.156;20.788;2023-04-01T21:17:51;10.20;;;8.50;;
38611;SDS011;24368;52.156;20.788;2023-04-01T21:28:21;3.90;;;3.60;;
38611;SDS011;24368;52.156;20.788;2023-04-01T21:33:51;4.80;;;3.90;;
38611;SDS011;24368;52.156;20.788;2023-04-01T21:39:22;3.80;;;3.50;;
38611;SDS011;24368;52.156;20.788;2023-04-01T21:45:03;3.50;;;3.20;;
38611;SDS011;24368;52.156;20.788;2023-04-01T21:50:33;3.60;;;3.30;;
38611;SDS011;24368;52.156;20.788;2023-04-01T21:56:00;4.00;;;3.50;;
38611;SDS011;24368;52.156;20.788;2023-04-01T22:06:48;7.70;;;6.70;;
38611;SDS011;24368;52.156;20.788;2023-04-01T22:17:25;4.50;;;4.10;;
38611;SDS011;24368;52.156;20.788;2023-04-01T22:22:45;4.90;;;4.50;;
38611;SDS011;24368;52.156;20.788;2023-04-01T22:27:53;4.10;;;3.70;;
38611;SDS011;24368;52.156;20.788;2023-04-01T22:54:29;4.50;;;4.10;;
38611;SDS011;24368;52.156;20.788;2023-04-01T23:04:55;3.10;;;2.80;;
38611;SDS011;24368;52.156;20.788;2023-04-01T23:10:01;3.50;;;3.20;;
38611;SDS011;24368;52.156;20.788;2023-04-01T23:15:05;3.70;;;3.40;;
38611;SDS011;24368;52.156;20.788;2023-04-01T23:20:26;3.70;;;3.40;;
38611;SDS011;24368;52.156;20.788;2023-04-01T23:25:51;4.30;;;3.80;;
38611;SDS011;24368;52.156;20.788;2023-04-01T23:31:24;4.20;;;3.60;;
38611;SDS011;24368;52.156;20.788;2023-04-01T23:36:27;4.00;;;3.60;;
38611;SDS011;24368;52.156;20.788;2023-04-01T23:41:30;4.10;;;3.70;;
38611;SDS011;24368;52.156;20.788;2023-04-01T23:46:37;4.70;;;3.60;;
38611;SDS011;24368;52.156;20.788;2023-04-01T23:51:49;5.10;;;4.20;;
38611;SDS011;24368;52.156;20.788;2023-04-01T23:56:55;4.10;;;3.70;;
